createdAt,value
2023-05-12T00:00:15.260Z,101965.09
2023-05-12T00:02:17.952Z,101960.69
2023-05-12T00:04:22.930Z,101963.41
2023-05-12T00:06:27.829Z,101962.47
2023-05-12T00:08:35.978Z,101959.19
2023-05-12T00:10:41.395Z,101954.06
2023-05-12T00:12:49.280Z,101958.53
2023-05-12T00:14:54.350Z,101955.97
2023-05-12T00:17:00.170Z,101957.88
2023-05-12T00:19:05.097Z,101963.88
2023-05-12T00:21:10.601Z,101952.72
2023-05-12T00:23:18.019Z,101959.78
2023-05-12T00:25:22.956Z,101947.56
2023-05-12T00:27:27.964Z,101948.63
2023-05-12T00:29:38.777Z,101954.09
2023-05-12T00:31:43.739Z,101948.09
2023-05-12T00:33:48.781Z,101946.41
2023-05-12T00:35:53.572Z,101953.34
2023-05-12T00:37:59.083Z,101949.22
2023-05-12T00:40:05.229Z,101951.00
2023-05-12T00:42:10.173Z,101951.22
2023-05-12T00:44:14.977Z,101954.97
2023-05-12T00:46:22.738Z,101952.53
2023-05-12T00:48:27.884Z,101948.97
2023-05-12T00:50:34.940Z,101943.13
2023-05-12T00:52:40.050Z,101947.50
2023-05-12T00:54:46.325Z,101944.13
2023-05-12T00:56:51.182Z,101943.22
2023-05-12T00:58:56.383Z,101950.19
2023-05-12T01:01:01.578Z,101943.38
2023-05-12T01:03:09.403Z,101951.34
2023-05-12T01:05:14.860Z,101949.53
2023-05-12T01:07:22.704Z,101948.06
2023-05-12T01:09:27.832Z,101944.69
2023-05-12T01:11:34.368Z,101942.75
2023-05-12T01:13:39.930Z,101945.53
2023-05-12T01:15:52.457Z,101947.16
2023-05-12T01:18:04.117Z,101941.22
2023-05-12T01:20:15.155Z,101937.97
2023-05-12T01:22:26.650Z,101939.50
2023-05-12T01:24:34.593Z,101940.34
2023-05-12T01:26:42.872Z,101939.53
2023-05-12T01:28:48.552Z,101936.13
2023-05-12T01:30:54.098Z,101944.94
2023-05-12T01:33:02.328Z,101943.25
2023-05-12T01:35:07.906Z,101944.88
2023-05-12T01:37:13.156Z,101938.84
2023-05-12T01:39:18.186Z,101941.38
2023-05-12T01:41:23.173Z,101932.94
2023-05-12T01:43:31.052Z,101932.06
2023-05-12T01:45:36.696Z,101932.97
2023-05-12T01:47:41.708Z,101940.03
2023-05-12T01:49:46.682Z,101932.06
2023-05-12T01:51:51.505Z,101937.41
2023-05-12T01:53:57.529Z,101935.56
2023-05-12T01:56:02.524Z,101942.69
2023-05-12T01:58:07.461Z,101941.84
2023-05-12T02:00:15.988Z,101939.97
2023-05-12T02:02:21.109Z,101938.38
2023-05-12T02:04:27.476Z,101940.22
2023-05-12T02:06:35.722Z,101942.56
2023-05-12T02:08:42.863Z,101939.25
2023-05-12T02:10:47.792Z,101938.47
2023-05-12T02:12:52.926Z,101940.22
2023-05-12T02:14:58.083Z,101936.75
2023-05-12T02:17:05.590Z,101940.25
2023-05-12T02:19:10.792Z,101936.75
2023-05-12T02:21:15.842Z,101935.00
2023-05-12T02:23:21.161Z,101933.25
2023-05-12T02:25:28.054Z,101928.09
2023-05-12T02:27:33.110Z,101927.25
2023-05-12T02:29:38.335Z,101925.63
2023-05-12T02:31:43.378Z,101921.16
2023-05-12T02:33:52.173Z,101923.94
2023-05-12T02:35:57.896Z,101925.63
2023-05-12T02:38:02.852Z,101922.19
2023-05-12T02:40:09.191Z,101917.78
2023-05-12T02:42:14.219Z,101916.75
2023-05-12T02:44:22.674Z,101915.84
2023-05-12T02:46:27.772Z,101923.00
2023-05-12T02:48:33.208Z,101916.16
2023-05-12T02:50:41.230Z,101908.16
2023-05-12T02:52:46.291Z,101914.28
2023-05-12T02:54:51.282Z,101909.00
2023-05-12T02:56:58.278Z,101906.50
2023-05-12T02:59:03.218Z,101905.56
2023-05-12T03:01:11.100Z,101898.44
2023-05-12T03:03:16.781Z,101910.06
2023-05-12T03:05:24.965Z,101902.09
2023-05-12T03:07:35.233Z,101902.31
2023-05-12T03:09:40.248Z,101896.91
2023-05-12T03:11:45.211Z,101896.00
2023-05-12T03:13:53.328Z,101895.88
2023-05-12T03:16:01.931Z,101890.78
2023-05-12T03:18:07.180Z,101888.19
2023-05-12T03:20:12.706Z,101890.91
2023-05-12T03:22:17.926Z,101885.66
2023-05-12T03:24:26.939Z,101885.63
2023-05-12T03:26:32.378Z,101884.69
2023-05-12T03:28:37.360Z,101885.53
2023-05-12T03:30:42.492Z,101885.63
2023-05-12T03:32:47.893Z,101876.72
2023-05-12T03:34:53.148Z,101876.66
2023-05-12T03:36:58.457Z,101871.63
2023-05-12T03:39:03.559Z,101869.88
2023-05-12T03:41:11.300Z,101865.47
2023-05-12T03:43:16.523Z,101866.31
2023-05-12T03:45:24.429Z,101861.03
2023-05-12T03:47:33.082Z,101868.75
2023-05-12T03:49:38.104Z,101865.28
2023-05-12T03:51:46.084Z,101867.22
2023-05-12T03:53:53.968Z,101864.53
2023-05-12T03:55:59.264Z,101860.84
2023-05-12T03:58:06.999Z,101864.19
2023-05-12T04:00:13.179Z,101859.94
2023-05-12T04:02:18.132Z,101860.03
2023-05-12T04:04:23.088Z,101861.03
2023-05-12T04:06:28.235Z,101862.75
2023-05-12T04:08:33.726Z,101855.69
2023-05-12T04:10:42.636Z,101861.72
2023-05-12T04:12:48.230Z,101863.59
2023-05-12T04:14:56.443Z,101859.91
2023-05-12T04:17:01.441Z,101864.25
2023-05-12T04:19:06.899Z,101864.41
2023-05-12T04:21:12.245Z,101858.38
2023-05-12T04:23:17.712Z,101859.19
2023-05-12T04:25:22.795Z,101859.19
2023-05-12T04:27:27.923Z,101865.34
2023-05-12T04:29:33.289Z,101861.91
2023-05-12T04:31:41.296Z,101867.25
2023-05-12T04:33:48.475Z,101865.28
2023-05-12T04:35:59.232Z,101863.69
2023-05-12T04:38:04.796Z,101862.81
2023-05-12T04:40:11.837Z,101862.84
2023-05-12T04:42:17.233Z,101860.06
2023-05-12T04:44:22.409Z,101865.00
2023-05-12T04:46:27.604Z,101865.34
2023-05-12T04:48:35.548Z,101865.19
2023-05-12T04:50:41.046Z,101864.34
2023-05-12T04:52:46.134Z,101870.53
2023-05-12T04:54:51.546Z,101868.75
2023-05-12T04:56:57.103Z,101872.22
2023-05-12T04:59:02.268Z,101874.00
2023-05-12T05:01:07.736Z,101872.88
2023-05-12T05:03:12.763Z,101875.41
2023-05-12T05:05:22.177Z,101878.78
2023-05-12T05:07:28.249Z,101865.44
2023-05-12T05:09:36.095Z,101868.28
2023-05-12T05:11:41.546Z,101871.69
2023-05-12T05:13:46.633Z,101875.22
2023-05-12T05:15:54.375Z,101882.13
2023-05-12T05:18:01.890Z,101880.56
2023-05-12T05:20:11.797Z,101881.16
2023-05-12T05:22:20.559Z,101886.59
2023-05-12T05:24:25.976Z,101887.53
2023-05-12T05:26:30.918Z,101893.44
2023-05-12T05:28:36.021Z,101888.00
2023-05-12T05:30:41.298Z,101901.16
2023-05-12T05:32:46.249Z,101890.50
2023-05-12T05:34:51.276Z,101899.28
2023-05-12T05:36:56.206Z,101894.69
2023-05-12T05:39:03.909Z,101891.16
2023-05-12T05:41:09.564Z,101895.50
2023-05-12T05:43:14.444Z,101889.19
2023-05-12T05:45:19.714Z,101891.97
2023-05-12T05:47:26.138Z,101900.59
2023-05-12T05:49:31.327Z,101902.25
2023-05-12T05:51:36.424Z,101902.16
2023-05-12T05:53:41.323Z,101899.38
2023-05-12T05:55:49.010Z,101902.09
2023-05-12T05:57:53.823Z,101906.28
2023-05-12T05:59:59.306Z,101914.88
2023-05-12T06:02:05.025Z,101912.09
2023-05-12T06:04:10.044Z,101911.97
2023-05-12T06:06:14.931Z,101913.59
2023-05-12T06:08:20.350Z,101912.63
2023-05-12T06:10:28.935Z,101911.69
2023-05-12T06:12:36.641Z,101910.59
2023-05-12T06:14:41.637Z,101915.84
2023-05-12T06:16:46.725Z,101912.19
2023-05-12T06:18:51.682Z,101925.22
2023-05-12T06:20:56.537Z,101917.06
2023-05-12T06:23:01.883Z,101913.41
2023-05-12T06:25:07.382Z,101918.31
2023-05-12T06:27:12.487Z,101915.66
2023-05-12T06:29:21.466Z,101914.50
2023-05-12T06:31:26.438Z,101911.50
2023-05-12T06:33:31.933Z,101909.72
2023-05-12T06:35:36.825Z,101915.47
2023-05-12T06:37:41.619Z,101930.41
2023-05-12T06:39:46.439Z,101925.91
2023-05-12T06:41:51.271Z,101929.28
2023-05-12T06:43:56.362Z,101932.44
2023-05-12T06:46:03.829Z,101934.00
2023-05-12T06:48:09.602Z,101925.03
2023-05-12T06:50:15.814Z,101916.09
2023-05-12T06:52:21.243Z,101924.72
2023-05-12T06:54:29.588Z,101929.53
2023-05-12T06:56:34.605Z,101930.25
2023-05-12T06:58:39.632Z,101926.66
2023-05-12T07:00:44.533Z,101928.44
2023-05-12T07:02:51.982Z,101934.38
2023-05-12T07:04:56.711Z,101944.97
2023-05-12T07:07:02.253Z,101951.03
2023-05-12T07:09:07.146Z,101941.63
2023-05-12T07:11:12.011Z,101949.13
2023-05-12T07:13:16.819Z,101947.56
2023-05-12T07:15:21.988Z,101948.75
2023-05-12T07:17:29.037Z,101953.94
2023-05-12T07:19:36.852Z,101959.00
2023-05-12T07:21:42.081Z,101952.84
2023-05-12T07:23:47.015Z,101953.72
2023-05-12T07:25:51.950Z,101959.13
2023-05-12T07:27:56.955Z,101956.31
2023-05-12T07:30:02.807Z,101957.72
2023-05-12T07:32:08.050Z,101959.41
2023-05-12T07:34:12.906Z,101962.63
2023-05-12T07:36:23.235Z,101959.19
2023-05-12T07:38:31.289Z,101950.25
2023-05-12T07:40:37.019Z,101957.78
2023-05-12T07:42:42.024Z,101964.63
2023-05-12T07:44:47.135Z,101954.66
2023-05-12T07:46:52.108Z,101957.72
2023-05-12T07:48:57.640Z,101962.88
2023-05-12T07:51:03.492Z,101958.81
2023-05-12T07:53:11.094Z,101966.06
2023-05-12T07:55:16.110Z,101965.25
2023-05-12T07:57:21.097Z,101964.03
2023-05-12T07:59:26.078Z,101973.63
2023-05-12T08:01:31.014Z,101964.78
2023-05-12T08:03:36.986Z,101971.16
2023-05-12T08:05:41.959Z,101971.91
2023-05-12T08:07:47.530Z,101977.16
2023-05-12T08:09:55.493Z,101971.66
2023-05-12T08:12:00.330Z,101969.16
2023-05-12T08:14:05.316Z,101972.31
2023-05-12T08:16:10.195Z,101981.34
2023-05-12T08:18:15.157Z,101981.41
2023-05-12T08:20:20.529Z,101981.34
2023-05-12T08:22:25.687Z,101976.91
2023-05-12T08:24:30.821Z,101985.72
2023-05-12T08:26:38.380Z,101982.75
2023-05-12T08:28:43.288Z,101986.25
2023-05-12T08:30:48.172Z,101990.38
2023-05-12T08:32:53.055Z,101988.72
2023-05-12T08:34:58.307Z,101984.38
2023-05-12T08:37:03.324Z,101990.50
2023-05-12T08:39:08.715Z,101986.63
2023-05-12T08:41:18.906Z,101982.63
2023-05-12T08:43:30.251Z,101983.50
2023-05-12T08:45:35.339Z,101992.13
2023-05-12T08:47:41.263Z,101988.78
2023-05-12T08:49:49.384Z,101984.50
2023-05-12T08:51:58.550Z,101979.59
2023-05-12T08:54:05.179Z,101993.00
2023-05-12T08:58:25.260Z,101988.84
2023-05-12T09:00:42.407Z,101989.81
2023-05-12T09:02:53.927Z,101990.63
2023-05-12T09:04:59.616Z,101982.94
2023-05-12T09:07:04.751Z,101989.44
2023-05-12T09:09:09.933Z,101994.88
2023-05-12T09:11:15.848Z,101987.03
2023-05-12T09:13:26.542Z,101980.72
2023-05-12T09:15:38.657Z,102003.16
2023-05-12T09:17:46.253Z,101988.44
2023-05-12T09:19:51.197Z,101993.91
2023-05-12T09:21:56.288Z,101991.06
2023-05-12T09:24:06.328Z,101995.88
2023-05-12T09:26:11.341Z,101990.53
2023-05-12T09:28:17.684Z,101978.44
2023-05-12T09:30:32.799Z,101977.84
2023-05-12T09:32:39.364Z,101988.50
2023-05-12T09:34:47.064Z,101990.31
2023-05-12T09:36:59.248Z,101997.28
2023-05-12T09:39:07.506Z,101996.09
2023-05-12T09:41:12.353Z,101992.75
2023-05-12T09:43:19.570Z,101990.16
2023-05-12T09:45:26.067Z,101992.78
2023-05-12T09:47:32.112Z,101994.25
2023-05-12T09:49:38.534Z,101998.31
2023-05-12T09:51:46.077Z,102001.31
2023-05-12T09:53:50.905Z,101994.31
2023-05-12T09:55:55.822Z,101995.75
2023-05-12T09:58:02.956Z,101994.91
2023-05-12T10:00:24.942Z,101999.81
2023-05-12T10:02:38.154Z,101998.34
2023-05-12T10:04:50.658Z,101996.97
2023-05-12T10:06:59.158Z,102005.13
2023-05-12T10:09:09.518Z,101999.03
2023-05-12T10:11:14.570Z,101994.47
2023-05-12T10:13:20.123Z,102007.47
2023-05-12T10:15:26.859Z,101998.28
2023-05-12T10:17:32.866Z,101998.72
2023-05-12T10:19:39.109Z,101990.41
2023-05-12T10:21:47.604Z,101989.63
2023-05-12T10:23:57.053Z,101995.94
2023-05-12T10:26:02.902Z,101994.72
2023-05-12T10:28:08.555Z,101994.13
2023-05-12T10:30:14.536Z,102010.69
2023-05-12T10:32:19.671Z,102002.72
2023-05-12T10:34:24.502Z,102003.94
2023-05-12T10:36:29.807Z,102001.06
2023-05-12T10:38:39.864Z,102004.38
2023-05-12T10:40:58.263Z,102011.31
2023-05-12T10:43:03.824Z,102007.19
2023-05-12T10:45:19.468Z,102010.66
2023-05-12T10:47:29.746Z,102015.28
2023-05-12T10:49:38.425Z,102008.13
2023-05-12T10:51:52.734Z,102012.28
2023-05-12T10:54:04.281Z,102004.13
2023-05-12T10:56:12.906Z,102004.16
2023-05-12T10:58:19.656Z,101998.03
2023-05-12T11:00:29.091Z,102007.47
2023-05-12T11:02:36.935Z,102008.59
2023-05-12T11:04:45.212Z,102011.69
2023-05-12T11:07:02.947Z,102000.16
2023-05-12T11:09:09.334Z,102001.53
2023-05-12T11:11:22.438Z,101997.16
2023-05-12T11:13:28.024Z,102006.13
2023-05-12T11:15:33.071Z,101997.47
2023-05-12T11:17:42.714Z,101997.72
2023-05-12T11:19:50.606Z,101997.63
2023-05-12T11:21:55.784Z,101999.78
2023-05-12T11:24:00.961Z,101994.88
2023-05-12T11:26:07.806Z,101990.38
2023-05-12T11:28:16.449Z,101999.16
2023-05-12T11:30:21.689Z,101997.88
2023-05-12T11:32:26.766Z,101998.84
2023-05-12T11:34:31.758Z,102012.84
2023-05-12T11:36:43.472Z,102003.81
2023-05-12T11:38:53.085Z,102018.03
2023-05-12T11:40:58.522Z,101989.53
2023-05-12T11:43:13.193Z,102010.91
2023-05-12T11:45:38.799Z,102016.59
2023-05-12T11:47:43.849Z,102014.84
2023-05-12T11:49:50.832Z,102008.34
2023-05-12T11:51:57.028Z,102002.75
2023-05-12T11:54:02.200Z,102004.50
2023-05-12T11:56:07.538Z,102019.09
2023-05-12T11:58:13.394Z,102015.00
2023-05-12T12:00:19.240Z,102011.16
2023-05-12T12:02:27.724Z,102023.75
2023-05-12T12:04:36.755Z,102019.09
2023-05-12T12:06:48.625Z,102018.97
2023-05-12T12:08:55.040Z,102031.06
2023-05-12T12:11:01.978Z,102017.38
2023-05-12T12:13:08.618Z,102022.63
2023-05-12T12:15:15.461Z,102021.34
2023-05-12T12:17:20.385Z,102030.38
2023-05-12T12:19:28.112Z,102032.69
2023-05-12T12:21:33.053Z,102033.47
2023-05-12T12:23:47.647Z,102033.69
2023-05-12T12:25:56.108Z,102039.56
2023-05-12T12:28:01.057Z,102045.28
2023-05-12T12:30:06.023Z,102035.28
2023-05-12T12:32:11.425Z,102033.81
2023-05-12T12:34:16.258Z,102050.13
2023-05-12T12:36:23.721Z,102041.72
2023-05-12T12:38:28.806Z,102053.56
2023-05-12T12:40:34.041Z,102043.13
2023-05-12T12:42:41.505Z,102053.25
2023-05-12T12:44:49.218Z,102045.81
2023-05-12T12:46:54.124Z,102048.75
2023-05-12T12:48:59.849Z,102045.47
2023-05-12T12:51:05.480Z,102044.66
2023-05-12T12:53:12.918Z,102053.56
2023-05-12T12:55:17.856Z,102043.41
2023-05-12T12:57:23.234Z,102042.13
2023-05-12T12:59:31.071Z,102041.09
2023-05-12T13:01:36.302Z,102046.47
2023-05-12T13:03:41.415Z,102050.84
2023-05-12T13:05:47.606Z,102048.91
2023-05-12T13:07:52.654Z,102042.13
2023-05-12T13:10:00.269Z,102037.34
2023-05-12T13:12:05.355Z,102039.72
2023-05-12T13:14:10.927Z,102038.06
2023-05-12T13:16:16.175Z,102038.31
2023-05-12T13:18:21.048Z,102046.00
2023-05-12T13:20:27.099Z,102054.91
2023-05-12T13:22:34.855Z,102053.81
2023-05-12T13:24:40.429Z,102059.09
2023-05-12T13:26:47.930Z,102057.78
2023-05-12T13:28:52.777Z,102056.25
2023-05-12T13:30:57.749Z,102060.91
2023-05-12T13:33:05.031Z,102055.88
2023-05-12T13:35:11.838Z,102046.53
2023-05-12T13:37:16.808Z,102053.63
2023-05-12T13:39:23.676Z,102052.38
2023-05-12T13:41:28.832Z,102042.81
2023-05-12T13:43:38.433Z,102047.78
2023-05-12T13:45:43.316Z,102039.94
2023-05-12T13:47:48.155Z,102049.13
2023-05-12T13:49:53.122Z,102036.97
2023-05-12T13:51:57.906Z,102041.66
2023-05-12T13:54:02.757Z,102049.34
2023-05-12T13:56:08.128Z,102047.31
2023-05-12T13:58:13.045Z,102052.34
2023-05-12T14:00:29.961Z,102047.72
2023-05-12T14:02:35.539Z,102051.38
2023-05-12T14:04:41.290Z,102062.28
2023-05-12T14:06:46.345Z,102067.72
2023-05-12T14:08:51.346Z,102058.41
2023-05-12T14:10:57.947Z,102067.38
2023-05-12T14:13:02.783Z,102057.44
2023-05-12T14:15:26.119Z,102055.66
2023-05-12T14:17:36.987Z,102055.91
2023-05-12T14:19:42.992Z,102066.78
2023-05-12T14:21:48.035Z,102054.94
2023-05-12T14:23:52.860Z,102065.59
2023-05-12T14:25:58.406Z,102068.91
2023-05-12T14:28:03.782Z,102067.41
2023-05-12T14:30:11.413Z,102064.38
2023-05-12T14:32:16.605Z,102074.53
2023-05-12T14:34:24.281Z,102070.34
2023-05-12T14:36:32.571Z,102070.63
2023-05-12T14:38:38.133Z,102061.91
2023-05-12T14:40:46.551Z,102060.28
2023-05-12T14:42:51.363Z,102067.81
2023-05-12T14:44:56.740Z,102063.72
2023-05-12T14:47:01.667Z,102068.25
2023-05-12T14:49:10.831Z,102068.84
2023-05-12T14:51:18.785Z,102072.94
2023-05-12T14:53:23.807Z,102079.94
2023-05-12T14:55:34.791Z,102070.94
2023-05-12T14:57:40.030Z,102076.16
2023-05-12T14:59:45.340Z,102078.91
2023-05-12T15:01:53.050Z,102090.00
2023-05-12T15:03:58.064Z,102086.50
2023-05-12T15:06:06.942Z,102090.22
2023-05-12T15:08:15.190Z,102096.06
2023-05-12T15:10:22.678Z,102092.50
2023-05-12T15:12:27.601Z,102078.91
2023-05-12T15:14:36.890Z,102081.34
2023-05-12T15:16:41.963Z,102088.72
2023-05-12T15:18:49.435Z,102084.28
2023-05-12T15:20:54.528Z,102081.75
2023-05-12T15:22:59.669Z,102083.47
2023-05-12T15:25:07.938Z,102082.59
2023-05-12T15:27:12.806Z,102085.25
2023-05-12T15:29:21.555Z,102090.81
2023-05-12T15:31:26.756Z,102088.13
2023-05-12T15:33:32.208Z,102095.31
2023-05-12T15:35:40.314Z,102100.88
2023-05-12T15:37:47.509Z,102104.69
2023-05-12T15:39:52.395Z,102104.09
2023-05-12T15:42:00.310Z,102105.13
2023-05-12T15:44:05.155Z,102104.94
2023-05-12T15:46:11.060Z,102105.28
2023-05-12T15:48:16.378Z,102098.19
2023-05-12T15:50:23.214Z,102112.31
2023-05-12T15:52:30.724Z,102105.00
2023-05-12T15:54:38.906Z,102102.09
2023-05-12T15:56:43.858Z,102095.38
2023-05-12T15:58:51.305Z,102103.00
2023-05-12T16:00:56.858Z,102102.91
2023-05-12T16:03:02.148Z,102100.47
2023-05-12T16:05:07.634Z,102091.56
2023-05-12T16:07:12.569Z,102095.69
2023-05-12T16:09:17.681Z,102086.59
2023-05-12T16:11:22.587Z,102080.09
2023-05-12T16:13:27.649Z,102088.22
2023-05-12T16:15:35.113Z,102082.31
2023-05-12T16:17:40.140Z,102076.38
2023-05-12T16:19:45.475Z,102086.13
2023-05-12T16:21:53.585Z,102096.06
2023-05-12T16:23:58.637Z,102096.50
2023-05-12T16:26:03.562Z,102086.25
2023-05-12T16:28:08.391Z,102084.72
2023-05-12T16:30:16.225Z,102088.63
2023-05-12T16:32:25.560Z,102095.38
2023-05-12T16:34:30.367Z,102094.84
2023-05-12T16:36:35.392Z,102094.75
2023-05-12T16:38:40.703Z,102098.09
2023-05-12T16:40:45.763Z,102098.16
2023-05-12T16:42:55.357Z,102098.69
2023-05-12T16:45:00.345Z,102104.47
2023-05-12T16:47:07.246Z,102104.53
2023-05-12T16:49:14.755Z,102099.09
2023-05-12T16:51:21.169Z,102096.38
2023-05-12T16:53:29.186Z,102101.53
2023-05-12T16:55:33.996Z,102101.25
2023-05-12T16:57:40.475Z,102097.16
2023-05-12T16:59:49.766Z,102094.03
2023-05-12T17:01:54.608Z,102105.06
2023-05-12T17:03:59.919Z,102102.72
2023-05-12T17:06:07.670Z,102104.03
2023-05-12T17:08:12.502Z,102123.63
2023-05-12T17:10:19.822Z,102161.84
2023-05-12T17:12:24.962Z,102157.31
2023-05-12T17:14:30.047Z,102165.69
2023-05-12T17:16:34.916Z,102172.91
2023-05-12T17:20:48.174Z,102161.69
2023-05-12T17:22:55.552Z,102174.16
2023-05-12T17:25:00.361Z,102167.66
2023-05-12T17:27:05.162Z,102171.72
2023-05-12T17:29:10.323Z,102177.44
2023-05-12T17:31:15.481Z,102173.53
2023-05-12T17:33:22.616Z,102172.91
2023-05-12T17:35:27.670Z,102163.66
2023-05-12T17:37:35.326Z,102169.22
2023-05-12T17:39:44.508Z,102170.56
2023-05-12T17:41:49.390Z,102169.97
2023-05-12T17:43:54.430Z,102167.56
2023-05-12T17:46:00.725Z,102157.94
2023-05-12T17:48:06.532Z,102160.22
2023-05-12T17:50:15.406Z,102162.47
2023-05-12T17:52:20.909Z,102150.66
2023-05-12T17:54:28.577Z,102159.66
2023-05-12T17:56:36.114Z,102150.03
2023-05-12T17:58:41.839Z,102156.84
2023-05-12T18:00:46.711Z,102152.31
2023-05-12T18:02:52.527Z,102161.09
2023-05-12T18:04:57.544Z,102166.41
2023-05-12T18:07:02.414Z,102157.47
2023-05-12T18:09:08.783Z,102170.56
2023-05-12T18:11:13.884Z,102164.53
2023-05-12T18:13:21.682Z,102169.91
2023-05-12T18:15:29.045Z,102168.13
2023-05-12T18:17:34.436Z,102174.22
2023-05-12T18:19:39.540Z,102176.81
2023-05-12T18:21:44.734Z,102180.41
2023-05-12T18:23:49.700Z,102183.78
2023-05-12T18:25:54.982Z,102192.66
2023-05-12T18:27:59.988Z,102202.13
2023-05-12T18:30:08.634Z,102195.56
2023-05-12T18:32:13.706Z,102201.75
2023-05-12T18:34:20.636Z,102209.88
2023-05-12T18:36:27.408Z,102210.94
2023-05-12T18:38:32.793Z,102215.53
2023-05-12T18:40:38.021Z,102215.53
2023-05-12T18:42:42.971Z,102220.00
2023-05-12T18:44:47.926Z,102212.44
2023-05-12T18:46:55.581Z,102225.72
2023-05-12T18:49:00.652Z,102217.97
2023-05-12T18:51:05.582Z,102222.56
2023-05-12T18:55:23.374Z,102222.97
2023-05-12T18:57:28.790Z,102229.75
2023-05-12T18:59:33.933Z,102231.66
2023-05-12T19:01:38.961Z,102226.63
2023-05-12T19:03:46.920Z,102231.22
2023-05-12T19:05:52.130Z,102233.25
2023-05-12T19:07:57.265Z,102229.66
2023-05-12T19:10:02.156Z,102247.50
2023-05-12T19:12:10.947Z,102245.00
2023-05-12T19:14:18.409Z,102244.25
2023-05-12T19:16:23.985Z,102248.69
2023-05-12T19:18:31.624Z,102242.53
2023-05-12T19:20:39.613Z,102255.09
2023-05-12T19:22:47.416Z,102245.59
2023-05-12T19:24:52.813Z,102254.44
2023-05-12T19:26:57.769Z,102261.72
2023-05-12T19:29:02.733Z,102260.91
2023-05-12T19:31:07.864Z,102263.69
2023-05-12T19:33:14.245Z,102267.28
2023-05-12T19:35:22.884Z,102264.97
2023-05-12T19:37:30.590Z,102272.84
2023-05-12T19:39:35.675Z,102274.78
2023-05-12T19:41:42.643Z,102276.88
2023-05-12T19:43:47.535Z,102276.03
2023-05-12T19:45:53.109Z,102281.44
2023-05-12T19:47:59.574Z,102279.75
2023-05-12T19:50:04.368Z,102280.88
2023-05-12T19:52:10.078Z,102275.84
2023-05-12T19:54:17.761Z,102273.38
2023-05-12T19:56:23.413Z,102273.50
2023-05-12T19:58:28.487Z,102278.16
2023-05-12T20:00:33.471Z,102282.75
2023-05-12T20:02:39.869Z,102282.88
2023-05-12T20:04:44.944Z,102290.09
2023-05-12T20:06:54.127Z,102283.13
2023-05-12T20:09:01.860Z,102285.94
2023-05-12T20:11:10.043Z,102287.78
2023-05-12T20:13:14.923Z,102294.06
2023-05-12T20:15:20.538Z,102296.97
2023-05-12T20:17:27.312Z,102298.88
2023-05-12T20:19:32.324Z,102307.00
2023-05-12T20:21:37.534Z,102309.94
2023-05-12T20:23:42.431Z,102308.34
2023-05-12T20:25:47.552Z,102306.69
2023-05-12T20:27:56.672Z,102299.16
2023-05-12T20:30:01.510Z,102306.31
2023-05-12T20:32:06.991Z,102299.34
2023-05-12T20:34:12.083Z,102304.91
2023-05-12T20:36:17.585Z,102305.88
2023-05-12T20:38:26.761Z,102312.16
2023-05-12T20:40:31.792Z,102315.78
2023-05-12T20:42:36.638Z,102310.47
2023-05-12T20:44:44.224Z,102316.00
2023-05-12T20:46:49.258Z,102317.69
2023-05-12T20:48:55.182Z,102320.47
2023-05-12T20:51:00.221Z,102319.63
2023-05-12T20:53:05.234Z,102317.94
2023-05-12T20:55:11.327Z,102326.03
2023-05-12T20:57:16.344Z,102320.81
2023-05-12T20:59:27.360Z,102321.63
2023-05-12T21:01:35.074Z,102326.03
2023-05-12T21:03:40.693Z,102320.00
2023-05-12T21:05:48.116Z,102322.59
2023-05-12T21:07:53.168Z,102319.97
2023-05-12T21:10:00.443Z,102320.75
2023-05-12T21:12:05.901Z,102323.34
2023-05-12T21:14:10.849Z,102326.69
2023-05-12T21:16:16.086Z,102323.00
2023-05-12T21:18:23.660Z,102327.44
2023-05-12T21:20:30.350Z,102318.38
2023-05-12T21:22:35.517Z,102328.75
2023-05-12T21:24:40.818Z,102325.06
2023-05-12T21:26:45.878Z,102331.97
2023-05-12T21:28:51.198Z,102323.25
2023-05-12T21:30:56.930Z,102330.13
2023-05-12T21:33:01.993Z,102323.88
2023-05-12T21:35:10.584Z,102331.41
2023-05-12T21:37:18.710Z,102331.53
2023-05-12T21:39:23.741Z,102330.56
2023-05-12T21:41:30.936Z,102339.25
2023-05-12T21:43:36.230Z,102329.75
2023-05-12T21:45:41.356Z,102333.16
2023-05-12T21:47:50.197Z,102334.06
2023-05-12T21:49:57.002Z,102335.03
2023-05-12T21:52:04.866Z,102335.22
2023-05-12T21:54:10.205Z,102343.09
2023-05-12T21:56:15.603Z,102339.38
2023-05-12T21:58:20.829Z,102330.56
2023-05-12T22:00:26.679Z,102334.31
2023-05-12T22:02:31.794Z,102347.59
2023-05-12T22:04:36.701Z,102338.78
2023-05-12T22:06:41.842Z,102338.78
2023-05-12T22:08:52.499Z,102338.53
2023-05-12T22:10:57.936Z,102348.47
2023-05-12T22:13:02.938Z,102342.09
2023-05-12T22:15:09.050Z,102350.19
2023-05-12T22:17:14.476Z,102351.31
2023-05-12T22:19:23.207Z,102346.19
2023-05-12T22:21:29.944Z,102348.78
2023-05-12T22:23:34.834Z,102353.38
2023-05-12T22:25:42.418Z,102350.75
2023-05-12T22:27:47.374Z,102360.41
2023-05-12T22:29:52.515Z,102361.44
2023-05-12T22:31:57.501Z,102359.81
2023-05-12T22:34:02.457Z,102358.84
2023-05-12T22:36:08.114Z,102360.59
2023-05-12T22:38:13.124Z,102360.59
2023-05-12T22:40:20.344Z,102364.31
2023-05-12T22:42:28.069Z,102367.69
2023-05-12T22:44:33.499Z,102370.50
2023-05-12T22:46:38.614Z,102368.94
2023-05-12T22:48:44.287Z,102373.88
2023-05-12T22:50:49.323Z,102368.72
2023-05-12T22:52:57.484Z,102376.84
2023-05-12T22:55:02.649Z,102366.25
2023-05-12T22:57:07.896Z,102369.78
2023-05-12T22:59:17.870Z,102363.34
2023-05-12T23:01:22.915Z,102367.88
2023-05-12T23:03:28.272Z,102362.66
2023-05-12T23:05:33.396Z,102366.16
2023-05-12T23:07:38.527Z,102365.28
2023-05-12T23:09:43.434Z,102365.19
2023-05-12T23:11:48.491Z,102372.97
2023-05-12T23:13:53.486Z,102371.44
2023-05-12T23:16:01.165Z,102367.03
2023-05-12T23:18:06.246Z,102363.66
2023-05-12T23:20:12.196Z,102360.25
2023-05-12T23:22:17.636Z,102361.03
2023-05-12T23:24:22.542Z,102365.34
2023-05-12T23:26:27.563Z,102359.34
2023-05-12T23:28:32.618Z,102366.34
2023-05-12T23:30:40.167Z,102364.41
2023-05-12T23:32:50.701Z,102362.06
2023-05-12T23:34:56.596Z,102361.00
2023-05-12T23:37:01.468Z,102361.28
2023-05-12T23:39:06.554Z,102368.50
2023-05-12T23:41:11.508Z,102366.91
2023-05-12T23:43:16.547Z,102369.44
2023-05-12T23:45:23.107Z,102367.69
2023-05-12T23:47:31.160Z,102370.31
2023-05-12T23:49:38.729Z,102370.50
2023-05-12T23:51:43.719Z,102373.19
2023-05-12T23:53:48.663Z,102372.38
2023-05-12T23:55:53.531Z,102364.63
2023-05-12T23:58:01.003Z,102373.56
